Hague, North Dakota
Current Conditions -  °F | °C
As of 10:15 PM on Tuesday 25 Nov 2014 (Local Time) from K7L2 Reporting Station
Light Snow Light Snow  
Wind Chill: 14°   Ceiling: 1100
Heat Index: 27°   Visibility: 3mi
Dew Point: 27°   Wind: 17mph
Humidity: 100%   Direction: 30°NNE
Pressure: 29.87"   Gusts: 30mph
Location:  46.03°N, 100°W
Report Text: K7L2 260415Z AUTO 03015G26KT 3SM -SN BKN011 OVC017 M03/M03 A2987 RMK AO2 P0001
Loading
Personal Weather Stations






























Interactive Weather Map New forecast layout! Learn more

10-Day Weather Forecast

Advertisements
Track Severe Weather on mobile